createdAt,value
2022-11-24T00:01:26.570Z,1.60
2022-11-24T00:04:29.552Z,1.63
2022-11-24T00:07:32.609Z,2.00
2022-11-24T00:10:35.692Z,2.15
2022-11-24T00:13:39.750Z,2.08
2022-11-24T00:16:42.878Z,2.00
2022-11-24T00:19:45.857Z,2.20
2022-11-24T00:22:48.742Z,1.55
2022-11-24T00:25:51.737Z,2.05
2022-11-24T00:28:56.762Z,2.03
2022-11-24T00:31:59.768Z,1.90
2022-11-24T00:35:02.717Z,1.67
2022-11-24T00:38:05.732Z,1.90
2022-11-24T00:41:08.871Z,2.22
2022-11-24T00:44:12.032Z,1.65
2022-11-24T00:47:15.050Z,6.07
2022-11-24T00:50:18.304Z,2.30
2022-11-24T00:53:21.266Z,2.55
2022-11-24T00:56:25.319Z,2.60
2022-11-24T00:59:28.334Z,2.42
2022-11-24T01:02:31.326Z,2.50
2022-11-24T01:05:37.526Z,2.30
2022-11-24T01:08:41.383Z,2.20
2022-11-24T01:12:02.610Z,2.42
2022-11-24T01:15:06.030Z,2.60
2022-11-24T01:18:09.086Z,2.30
2022-11-24T01:21:12.282Z,2.22
2022-11-24T01:24:15.505Z,2.08
2022-11-24T01:27:18.538Z,2.35
2022-11-24T01:30:23.676Z,2.28
2022-11-24T01:33:26.845Z,2.25
2022-11-24T01:36:30.085Z,2.70
2022-11-24T01:39:33.055Z,2.20
2022-11-24T01:42:52.393Z,2.50
2022-11-24T01:45:56.204Z,2.60
2022-11-24T01:49:09.660Z,2.55
2022-11-24T01:52:23.846Z,2.38
2022-11-24T01:55:31.635Z,2.38
2022-11-24T01:58:35.196Z,2.53
2022-11-24T02:01:38.346Z,2.65
2022-11-24T02:04:41.962Z,3.03
2022-11-24T02:07:45.933Z,4.33
2022-11-24T02:10:49.523Z,4.70
2022-11-24T02:13:54.961Z,5.07
2022-11-24T02:16:57.968Z,12.27
2022-11-24T02:20:07.556Z,14.13
2022-11-24T02:23:10.509Z,13.75
2022-11-24T02:26:22.054Z,6.85
2022-11-24T02:29:25.168Z,7.05
2022-11-24T02:32:29.147Z,5.68
2022-11-24T02:35:33.005Z,6.82
2022-11-24T02:38:36.750Z,5.70
2022-11-24T02:41:45.560Z,5.93
2022-11-24T02:44:53.521Z,6.10
2022-11-24T02:47:56.511Z,8.90
2022-11-24T02:50:59.542Z,5.75
2022-11-24T02:54:02.564Z,5.07
2022-11-24T02:57:05.643Z,4.57
2022-11-24T03:00:09.988Z,4.50
2022-11-24T03:03:13.203Z,5.28
2022-11-24T03:06:16.202Z,5.60
2022-11-24T03:09:19.158Z,7.07
2022-11-24T03:12:22.309Z,6.35
2022-11-24T03:15:25.355Z,7.43
2022-11-24T03:18:28.442Z,6.88
2022-11-24T03:21:31.768Z,5.90
2022-11-24T03:24:35.119Z,5.22
2022-11-24T03:27:38.399Z,6.20
2022-11-24T03:30:41.678Z,6.22
2022-11-24T03:33:44.638Z,6.45
2022-11-24T03:36:47.689Z,5.07
2022-11-24T03:39:50.958Z,10.07
2022-11-24T03:42:53.918Z,5.20
2022-11-24T03:45:57.293Z,5.55
2022-11-24T03:49:00.389Z,5.43
2022-11-24T03:52:07.806Z,5.05
2022-11-24T03:55:11.417Z,5.40
2022-11-24T03:58:14.562Z,4.82
2022-11-24T04:01:17.751Z,5.63
2022-11-24T04:04:21.095Z,7.82
2022-11-24T04:07:24.250Z,7.93
2022-11-24T04:10:27.350Z,10.50
2022-11-24T04:13:30.386Z,10.95
2022-11-24T04:16:33.598Z,10.85
2022-11-24T04:19:36.659Z,12.20
2022-11-24T04:22:40.622Z,13.13
2022-11-24T04:25:44.336Z,12.10
2022-11-24T04:28:47.815Z,13.18
2022-11-24T04:31:51.318Z,13.52
2022-11-24T04:34:54.667Z,11.02
2022-11-24T04:37:57.808Z,14.05
2022-11-24T04:41:04.704Z,15.25
2022-11-24T04:44:07.679Z,17.75
2022-11-24T04:47:23.189Z,15.82
2022-11-24T04:50:26.268Z,10.63
2022-11-24T04:53:29.373Z,9.95
2022-11-24T04:56:32.363Z,12.45
2022-11-24T04:59:35.393Z,10.48
2022-11-24T05:02:38.695Z,13.25
2022-11-24T05:05:41.791Z,11.35
2022-11-24T05:08:47.822Z,10.68
2022-11-24T05:11:52.691Z,12.75
2022-11-24T05:14:55.719Z,14.38
2022-11-24T05:17:59.073Z,14.15
2022-11-24T05:21:02.545Z,14.40
2022-11-24T05:24:06.051Z,15.80
2022-11-24T05:27:09.174Z,10.55
2022-11-24T05:30:12.989Z,11.90
2022-11-24T05:33:19.642Z,11.60
2022-11-24T05:36:41.206Z,10.98
2022-11-24T05:39:44.312Z,9.52
2022-11-24T05:42:48.340Z,8.73
2022-11-24T05:45:51.682Z,10.65
2022-11-24T05:48:54.733Z,10.50
2022-11-24T05:51:57.741Z,15.13
2022-11-24T05:55:00.740Z,12.40
2022-11-24T05:58:06.889Z,10.73
2022-11-24T06:01:09.962Z,11.75
2022-11-24T06:04:13.047Z,11.85
2022-11-24T06:07:16.664Z,10.38
2022-11-24T06:10:21.343Z,11.63
2022-11-24T06:16:27.768Z,9.68
2022-11-24T06:19:31.059Z,9.80
2022-11-24T06:22:34.489Z,12.73
2022-11-24T06:25:37.473Z,13.40
2022-11-24T06:28:40.568Z,11.88
2022-11-24T06:31:43.796Z,11.25
2022-11-24T06:34:47.475Z,10.82
2022-11-24T06:37:50.614Z,11.70
2022-11-24T06:41:00.717Z,12.05
2022-11-24T06:44:05.336Z,11.27
2022-11-24T06:47:08.314Z,11.50
2022-11-24T06:50:11.698Z,10.10
2022-11-24T06:53:14.815Z,12.40
2022-11-24T06:56:20.472Z,11.20
2022-11-24T06:59:23.535Z,11.98
2022-11-24T07:02:26.648Z,11.98
2022-11-24T07:05:29.669Z,12.63
2022-11-24T07:08:32.658Z,12.23
2022-11-24T07:11:36.552Z,13.48
2022-11-24T07:14:39.629Z,15.15
2022-11-24T07:17:42.681Z,11.27
2022-11-24T07:20:45.693Z,13.80
2022-11-24T07:23:53.255Z,11.68
2022-11-24T07:26:56.342Z,11.00
2022-11-24T07:29:59.511Z,11.30
2022-11-24T07:33:03.487Z,10.05
2022-11-24T07:36:08.268Z,12.20
2022-11-24T07:39:11.603Z,11.35
2022-11-24T07:42:14.585Z,14.73
2022-11-24T07:45:17.700Z,14.40
2022-11-24T07:48:20.947Z,12.15
2022-11-24T07:51:24.101Z,13.65
2022-11-24T07:54:27.424Z,14.75
2022-11-24T07:57:30.585Z,16.90
2022-11-24T08:00:33.736Z,17.88
2022-11-24T08:03:37.114Z,11.13
2022-11-24T08:06:44.683Z,11.07
2022-11-24T08:09:51.090Z,14.20
2022-11-24T08:12:54.104Z,14.30
2022-11-24T08:15:57.042Z,12.95
2022-11-24T08:19:00.176Z,20.75
2022-11-24T08:22:03.493Z,27.30
2022-11-24T08:25:06.925Z,13.82
2022-11-24T08:28:10.007Z,19.60
2022-11-24T08:31:16.100Z,17.73
2022-11-24T08:34:19.152Z,16.38
2022-11-24T08:37:22.272Z,14.35
2022-11-24T08:40:25.320Z,12.55
2022-11-24T08:43:28.501Z,10.93
2022-11-24T08:46:31.760Z,10.90
2022-11-24T08:49:34.863Z,6.05
2022-11-24T08:52:38.188Z,10.80
2022-11-24T08:55:41.282Z,10.05
2022-11-24T08:58:44.718Z,10.60
2022-11-24T09:01:47.862Z,10.40
2022-11-24T09:04:51.899Z,11.07
2022-11-24T09:07:55.152Z,4.50
2022-11-24T09:11:05.982Z,8.80
2022-11-24T09:14:09.093Z,9.45
2022-11-24T09:17:12.175Z,13.10
2022-11-24T09:20:15.563Z,8.10
2022-11-24T09:23:18.533Z,14.80
2022-11-24T09:26:33.416Z,10.25
2022-11-24T09:29:36.759Z,11.80
2022-11-24T09:32:40.068Z,7.93
2022-11-24T09:35:43.112Z,11.65
2022-11-24T09:38:46.419Z,7.43
2022-11-24T09:42:10.430Z,10.15
2022-11-24T09:45:57.517Z,7.70
2022-11-24T09:48:59.467Z,15.52
2022-11-24T09:52:08.639Z,10.77
2022-11-24T09:55:40.288Z,7.45
2022-11-24T09:58:51.263Z,11.80
2022-11-24T10:01:56.338Z,8.27
2022-11-24T10:05:01.509Z,11.93
2022-11-24T10:08:20.443Z,10.70
2022-11-24T10:11:47.458Z,10.88
2022-11-24T10:15:17.651Z,13.55
2022-11-24T10:19:03.614Z,12.75
2022-11-24T10:22:13.366Z,10.90
2022-11-24T10:25:34.485Z,10.73
2022-11-24T10:28:45.868Z,16.15
2022-11-24T10:31:54.340Z,8.27
2022-11-24T10:35:03.635Z,10.55
2022-11-24T10:38:22.179Z,14.82
2022-11-24T10:41:38.545Z,12.68
2022-11-24T10:44:43.212Z,16.15
2022-11-24T10:47:47.539Z,14.68
2022-11-24T10:50:54.862Z,12.70
2022-11-24T10:54:21.862Z,11.25
2022-11-24T10:57:44.413Z,14.20
2022-11-24T11:00:53.695Z,13.73
2022-11-24T11:04:00.246Z,21.38
2022-11-24T11:07:10.357Z,17.65
2022-11-24T11:10:21.117Z,21.15
2022-11-24T11:13:30.818Z,25.73
2022-11-24T11:16:54.651Z,23.95
2022-11-24T11:20:07.988Z,23.00
2022-11-24T11:23:21.850Z,28.33
2022-11-24T11:26:34.239Z,37.05
2022-11-24T11:39:35.650Z,37.58
2022-11-24T11:43:04.534Z,45.67
2022-11-24T11:46:18.940Z,32.80
2022-11-24T11:49:22.301Z,23.27
2022-11-24T11:52:36.443Z,29.75
2022-11-24T11:55:49.898Z,32.30
2022-11-24T11:59:14.978Z,28.63
2022-11-24T12:02:27.141Z,27.13
2022-11-24T12:05:47.103Z,26.65
2022-11-24T12:09:20.411Z,24.90
2022-11-24T12:12:46.465Z,23.75
2022-11-24T12:15:52.970Z,23.42
2022-11-24T12:18:58.021Z,24.65
2022-11-24T12:22:36.421Z,56.95
2022-11-24T12:26:02.866Z,25.67
2022-11-24T12:29:43.211Z,22.85
2022-11-24T12:33:12.611Z,21.45
2022-11-24T12:36:36.938Z,15.18
2022-11-24T12:39:49.734Z,13.30
2022-11-24T12:43:02.346Z,10.35
2022-11-24T12:46:20.424Z,10.57
2022-11-24T12:49:34.883Z,9.57
2022-11-24T12:55:48.802Z,5.50
2022-11-24T12:59:03.572Z,7.13
2022-11-24T13:02:31.269Z,6.35
2022-11-24T13:06:21.848Z,5.07
2022-11-24T13:09:25.020Z,3.60
2022-11-24T13:12:28.190Z,2.72
2022-11-24T13:15:45.516Z,1.33
2022-11-24T13:19:15.090Z,0.90
2022-11-24T13:22:25.168Z,1.50
2022-11-24T13:25:35.894Z,1.95
2022-11-24T13:29:23.692Z,3.25
2022-11-24T13:32:34.379Z,3.08
2022-11-24T13:35:38.137Z,2.45
2022-11-24T13:38:47.327Z,8.00
2022-11-24T13:41:50.481Z,12.93
2022-11-24T13:44:58.688Z,15.80
2022-11-24T13:48:01.685Z,15.15
2022-11-24T13:51:22.987Z,15.30
2022-11-24T13:54:28.286Z,12.60
2022-11-24T13:57:46.038Z,11.25
2022-11-24T14:01:01.966Z,9.93
2022-11-24T14:04:36.059Z,9.68
2022-11-24T14:07:42.682Z,9.98
2022-11-24T14:10:46.563Z,10.95
2022-11-24T14:13:49.875Z,11.90
2022-11-24T14:17:15.496Z,12.07
2022-11-24T14:20:28.988Z,9.43
2022-11-24T14:23:32.437Z,12.30
2022-11-24T14:26:37.165Z,11.10
2022-11-24T14:29:56.281Z,11.30
2022-11-24T14:33:02.081Z,10.85
2022-11-24T14:36:05.544Z,8.80
2022-11-24T14:39:13.527Z,9.10
2022-11-24T14:42:21.563Z,13.57
2022-11-24T14:45:26.192Z,12.98
2022-11-24T14:48:40.652Z,15.25
2022-11-24T14:51:46.187Z,13.13
2022-11-24T14:55:21.410Z,13.52
2022-11-24T14:58:37.672Z,12.18
2022-11-24T15:01:44.090Z,13.48
2022-11-24T15:05:13.825Z,16.33
2022-11-24T15:08:16.957Z,19.95
2022-11-24T15:11:21.197Z,24.52
2022-11-24T15:14:41.361Z,20.45
2022-11-24T15:17:57.357Z,17.80
2022-11-24T15:21:00.491Z,16.52
2022-11-24T15:24:21.444Z,19.58
2022-11-24T15:27:24.486Z,18.85
2022-11-24T15:30:28.483Z,20.83
2022-11-24T15:33:33.579Z,21.80
2022-11-24T15:36:36.663Z,19.70
2022-11-24T15:39:39.756Z,19.45
2022-11-24T15:42:43.334Z,19.40
2022-11-24T15:45:46.625Z,21.95
2022-11-24T15:48:49.817Z,21.33
2022-11-24T15:51:52.845Z,26.05
2022-11-24T15:54:57.837Z,24.35
2022-11-24T15:58:02.261Z,21.10
2022-11-24T16:04:08.395Z,19.42
2022-11-24T16:07:15.085Z,21.67
2022-11-24T16:10:32.151Z,22.13
2022-11-24T16:13:35.292Z,22.33
2022-11-24T16:16:38.613Z,22.52
2022-11-24T16:19:42.258Z,20.73
2022-11-24T16:22:45.871Z,25.85
2022-11-24T16:25:50.015Z,23.58
2022-11-24T16:28:53.216Z,22.00
2022-11-24T16:31:56.365Z,20.30
2022-11-24T16:34:59.706Z,24.33
2022-11-24T16:38:02.760Z,22.15
2022-11-24T16:41:05.969Z,21.55
2022-11-24T16:44:09.000Z,22.00
2022-11-24T16:47:13.649Z,20.88
2022-11-24T16:50:16.854Z,20.55
2022-11-24T16:53:19.865Z,19.23
2022-11-24T16:56:23.039Z,18.35
2022-11-24T16:59:26.189Z,20.27
2022-11-24T17:02:29.522Z,20.80
2022-11-24T17:05:32.714Z,21.77
2022-11-24T17:08:37.867Z,24.45
2022-11-24T17:11:41.260Z,26.58
2022-11-24T17:14:52.637Z,34.08
2022-11-24T17:18:24.961Z,27.20
2022-11-24T17:21:29.330Z,28.92
2022-11-24T17:24:32.710Z,25.85
2022-11-24T17:27:35.972Z,27.57
2022-11-24T17:30:39.240Z,24.50
2022-11-24T17:33:42.400Z,25.10
2022-11-24T17:36:46.641Z,24.90
2022-11-24T17:40:12.616Z,22.90
2022-11-24T17:43:12.669Z,22.55
2022-11-24T17:46:15.842Z,20.70
2022-11-24T17:49:19.032Z,18.33
2022-11-24T17:52:22.061Z,14.98
2022-11-24T17:55:25.116Z,13.48
2022-11-24T17:58:33.585Z,14.10
2022-11-24T18:01:38.704Z,13.35
2022-11-24T18:04:41.810Z,12.97
2022-11-24T18:07:44.936Z,12.60
2022-11-24T18:10:48.214Z,11.63
2022-11-24T18:13:59.760Z,12.15
2022-11-24T18:17:03.188Z,10.60
2022-11-24T18:20:07.192Z,13.18
2022-11-24T18:23:10.217Z,12.80
2022-11-24T18:26:18.295Z,10.75
2022-11-24T18:29:23.348Z,11.93
2022-11-24T18:32:26.615Z,20.95
2022-11-24T18:35:29.636Z,14.82
2022-11-24T18:41:40.571Z,12.35
2022-11-24T18:44:43.600Z,11.55
2022-11-24T18:47:46.842Z,7.68
2022-11-24T18:50:53.262Z,8.57
2022-11-24T18:53:58.523Z,8.20
2022-11-24T18:57:03.551Z,6.55
2022-11-24T19:00:08.242Z,6.50
2022-11-24T19:03:12.823Z,6.30
2022-11-24T19:06:25.301Z,7.78
2022-11-24T19:09:28.388Z,8.70
2022-11-24T19:12:31.360Z,8.75
2022-11-24T19:15:35.715Z,7.57
2022-11-24T19:21:41.955Z,6.40
2022-11-24T19:24:47.758Z,7.13
2022-11-24T19:27:50.722Z,5.32
2022-11-24T19:30:53.906Z,4.70
2022-11-24T19:33:59.002Z,4.88
2022-11-24T19:37:01.954Z,7.63
2022-11-24T19:40:07.136Z,4.45
2022-11-24T19:43:10.185Z,3.88
2022-11-24T19:46:15.222Z,3.65
2022-11-24T19:49:18.312Z,3.00
2022-11-24T19:52:21.339Z,2.45
2022-11-24T19:55:24.338Z,2.90
2022-11-24T19:58:27.354Z,2.78
2022-11-24T20:01:33.428Z,1.88
2022-11-24T20:04:40.217Z,3.85
2022-11-24T20:07:43.434Z,2.97
2022-11-24T20:10:46.546Z,2.90
2022-11-24T20:13:50.478Z,3.45
2022-11-24T20:16:53.542Z,3.22
2022-11-24T20:19:56.657Z,3.28
2022-11-24T20:22:59.727Z,2.90
2022-11-24T20:26:11.283Z,2.92
2022-11-24T20:29:15.454Z,3.35
2022-11-24T20:32:20.803Z,2.38
2022-11-24T20:35:23.874Z,2.50
2022-11-24T20:38:26.820Z,2.92
2022-11-24T20:41:32.928Z,3.40
2022-11-24T20:44:36.249Z,3.47
2022-11-24T20:47:39.459Z,4.30
2022-11-24T20:50:45.736Z,3.63
2022-11-24T20:53:53.199Z,2.38
2022-11-24T20:56:56.275Z,8.30
2022-11-24T20:59:59.255Z,3.63
2022-11-24T21:03:02.336Z,3.45
2022-11-24T21:06:05.819Z,3.60
2022-11-24T21:09:10.053Z,3.57
2022-11-24T21:12:13.033Z,4.15
2022-11-24T21:15:16.376Z,2.88
2022-11-24T21:18:20.545Z,3.37
2022-11-24T21:21:26.207Z,4.30
2022-11-24T21:24:31.488Z,4.72
2022-11-24T21:27:35.467Z,4.05
2022-11-24T21:30:38.611Z,6.38
2022-11-24T21:33:44.127Z,6.13
2022-11-24T21:36:47.972Z,3.85
2022-11-24T21:39:51.716Z,4.57
2022-11-24T21:42:54.805Z,3.70
2022-11-24T21:46:08.975Z,4.32
2022-11-24T21:49:13.794Z,4.38
2022-11-24T21:52:16.893Z,4.07
2022-11-24T21:55:20.018Z,4.55
2022-11-24T21:58:24.297Z,3.22
2022-11-24T22:01:29.270Z,4.43
2022-11-24T22:04:32.487Z,4.28
2022-11-24T22:07:35.836Z,3.38
2022-11-24T22:10:39.225Z,5.38
2022-11-24T22:13:44.815Z,5.03
2022-11-24T22:16:48.367Z,4.80
2022-11-24T22:19:51.525Z,3.95
2022-11-24T22:22:54.626Z,4.60
2022-11-24T22:26:03.410Z,4.53
2022-11-24T22:29:06.779Z,4.53
2022-11-24T22:32:09.878Z,6.68
2022-11-24T22:35:12.952Z,6.07
2022-11-24T22:38:16.008Z,4.55
2022-11-24T22:41:19.581Z,19.70
2022-11-24T22:44:22.635Z,7.45
2022-11-24T22:47:25.767Z,4.95
2022-11-24T22:50:28.888Z,5.68
2022-11-24T22:53:32.462Z,5.40
2022-11-24T22:56:35.604Z,5.37
2022-11-24T22:59:38.672Z,3.30
2022-11-24T23:02:41.922Z,4.70
2022-11-24T23:05:45.060Z,5.03
2022-11-24T23:08:48.864Z,5.18
2022-11-24T23:11:51.941Z,5.00
2022-11-24T23:14:55.221Z,5.20
2022-11-24T23:17:58.256Z,5.75
2022-11-24T23:21:21.290Z,6.85
2022-11-24T23:24:24.216Z,6.70
2022-11-24T23:27:27.134Z,8.00
2022-11-24T23:30:30.122Z,8.43
2022-11-24T23:33:33.613Z,7.10
2022-11-24T23:36:36.570Z,7.90
2022-11-24T23:39:39.520Z,5.80
2022-11-24T23:42:42.730Z,3.90
2022-11-24T23:45:45.763Z,3.33
2022-11-24T23:48:50.033Z,2.85
2022-11-24T23:51:53.031Z,1.10
2022-11-24T23:54:56.263Z,2.47
2022-11-24T23:57:59.365Z,1.20
